createdAt,value
2023-06-29T00:09:16.182Z,14.48
2023-06-29T00:24:58.937Z,14.3
2023-06-29T00:40:41.596Z,14.19
2023-06-29T00:56:23.698Z,14.05
2023-06-29T01:12:06.137Z,13.88
2023-06-29T01:27:48.425Z,13.78
2023-06-29T01:43:30.903Z,13.63
2023-06-29T02:14:55.304Z,13.34
2023-06-29T02:30:38.306Z,13.2
2023-06-29T02:46:20.565Z,13.13
2023-06-29T03:02:03.321Z,13.02
2023-06-29T03:17:45.504Z,13.02
2023-06-29T03:33:28.117Z,13.12
2023-06-29T03:49:10.176Z,13.43
2023-06-29T04:04:52.984Z,13.92
2023-06-29T04:20:35.450Z,14.48
2023-06-29T04:52:00.498Z,16.1
2023-06-29T05:07:43.503Z,16.42
2023-06-29T05:23:26.225Z,16.93
2023-06-29T05:39:08.268Z,17.96
2023-06-29T05:54:50.289Z,18.83
2023-06-29T06:10:32.485Z,19.89
2023-06-29T06:26:15.007Z,20.46
2023-06-29T06:41:57.885Z,21.06
2023-06-29T06:57:41.169Z,21.68
2023-06-29T07:29:05.296Z,22.75
2023-06-29T07:44:47.859Z,23.16
2023-06-29T08:00:30.591Z,23.6
2023-06-29T08:16:13.370Z,24.02
2023-06-29T08:31:55.424Z,23.98
2023-06-29T08:47:37.979Z,24.22
2023-06-29T09:03:20.496Z,23.92
2023-06-29T09:19:02.631Z,23.55
2023-06-29T09:34:44.844Z,23.56
2023-06-29T09:50:27.628Z,23.77
2023-06-29T10:06:09.664Z,24.37
2023-06-29T10:21:52.206Z,26.13
2023-06-29T10:37:34.316Z,26.78
2023-06-29T10:53:16.775Z,27.75
2023-06-29T11:09:02.274Z,30.05
2023-06-29T11:24:41.503Z,32.65
2023-06-29T11:40:24.262Z,30.42
2023-06-29T11:56:07.013Z,30.15
2023-06-29T12:11:49.121Z,29.73
2023-06-29T12:27:31.189Z,29.78
2023-06-29T12:43:13.889Z,29.88
2023-06-29T12:58:55.965Z,29.29
2023-06-29T13:14:37.933Z,29.03
2023-06-29T13:30:20.206Z,29.38
2023-06-29T13:46:02.999Z,30.78
2023-06-29T14:01:45.488Z,29.56
2023-06-29T14:17:28.308Z,29.46
2023-06-29T14:33:11.112Z,30.86
2023-06-29T14:48:53.724Z,31.42
2023-06-29T15:04:36.303Z,32.66
2023-06-29T15:36:01.467Z,34.14
2023-06-29T15:51:43.720Z,33.66
2023-06-29T16:07:26.227Z,32.18
2023-06-29T16:23:08.956Z,30.96
2023-06-29T16:38:51.075Z,29.35
2023-06-29T16:54:33.563Z,28.14
2023-06-29T17:10:15.613Z,27.04
2023-06-29T17:25:57.770Z,26.49
2023-06-29T17:41:40.146Z,26.46
2023-06-29T17:57:22.619Z,26.28
2023-06-29T18:13:04.432Z,25.91
2023-06-29T18:28:46.873Z,25.5
2023-06-29T18:44:29.629Z,24.98
2023-06-29T19:00:12.212Z,24.45
2023-06-29T19:15:54.914Z,23.97
2023-06-29T19:31:37.786Z,23.35
2023-06-29T19:47:19.554Z,22.75
2023-06-29T20:03:02.333Z,22.23
2023-06-29T20:18:44.868Z,21.84
2023-06-29T20:34:27.508Z,21.62
2023-06-29T20:35:14.677Z,21.75
2023-06-29T20:50:57.189Z,21.46
2023-06-29T21:06:40.210Z,21.23
2023-06-29T21:22:22.613Z,20.98
2023-06-29T21:38:05.153Z,20.77
2023-06-29T21:53:48.141Z,20.66
2023-06-29T22:09:31.057Z,20.6
2023-06-29T22:25:13.684Z,20.51
2023-06-29T22:40:55.987Z,20.5
2023-06-29T22:56:38.733Z,20.5
2023-06-29T23:12:21.438Z,20.46
2023-06-29T23:28:03.411Z,20.43
2023-06-29T23:43:45.721Z,20.36
2023-06-29T23:59:28.364Z,20.49
